sensor_id;sensor_type;location;lat;lon;timestamp;temperature;humidity
58809;DHT22;44579;51.672;7.834;2022-12-10T00:01:17;2.00;93.20
58809;DHT22;44579;51.672;7.834;2022-12-10T00:03:45;2.00;93.20
58809;DHT22;44579;51.672;7.834;2022-12-10T00:06:18;2.00;93.20
58809;DHT22;44579;51.672;7.834;2022-12-10T00:08:45;2.00;93.20
58809;DHT22;44579;51.672;7.834;2022-12-10T00:11:13;2.10;93.20
58809;DHT22;44579;51.672;7.834;2022-12-10T00:13:42;2.10;93.10
58809;DHT22;44579;51.672;7.834;2022-12-10T00:16:10;2.10;93.10
58809;DHT22;44579;51.672;7.834;2022-12-10T00:18:38;2.10;93.10
58809;DHT22;44579;51.672;7.834;2022-12-10T00:21:07;2.10;93.10
58809;DHT22;44579;51.672;7.834;2022-12-10T00:23:34;2.00;93.10
58809;DHT22;44579;51.672;7.834;2022-12-10T00:26:06;2.00;93.10
58809;DHT22;44579;51.672;7.834;2022-12-10T00:28:34;2.00;93.10
58809;DHT22;44579;51.672;7.834;2022-12-10T00:31:06;2.00;93.10
58809;DHT22;44579;51.672;7.834;2022-12-10T00:33:34;2.00;93.10
58809;DHT22;44579;51.672;7.834;2022-12-10T00:36:10;2.00;93.10
58809;DHT22;44579;51.672;7.834;2022-12-10T00:38:39;2.00;93.00
58809;DHT22;44579;51.672;7.834;2022-12-10T00:41:10;2.00;93.00
58809;DHT22;44579;51.672;7.834;2022-12-10T00:43:37;2.00;93.10
58809;DHT22;44579;51.672;7.834;2022-12-10T00:46:05;2.00;93.10
58809;DHT22;44579;51.672;7.834;2022-12-10T00:48:32;2.00;93.10
58809;DHT22;44579;51.672;7.834;2022-12-10T00:51:04;1.90;93.10
58809;DHT22;44579;51.672;7.834;2022-12-10T00:53:32;2.00;93.20
58809;DHT22;44579;51.672;7.834;2022-12-10T00:56:00;2.00;93.20
58809;DHT22;44579;51.672;7.834;2022-12-10T00:58:28;2.00;93.10
58809;DHT22;44579;51.672;7.834;2022-12-10T01:01:13;2.00;93.10
58809;DHT22;44579;51.672;7.834;2022-12-10T01:03:42;1.90;93.10
58809;DHT22;44579;51.672;7.834;2022-12-10T01:06:26;1.90;93.20
58809;DHT22;44579;51.672;7.834;2022-12-10T01:08:55;1.80;93.30
58809;DHT22;44579;51.672;7.834;2022-12-10T01:11:29;1.80;93.30
58809;DHT22;44579;51.672;7.834;2022-12-10T01:13:56;1.80;93.30
58809;DHT22;44579;51.672;7.834;2022-12-10T01:16:23;1.80;93.40
58809;DHT22;44579;51.672;7.834;2022-12-10T01:18:53;1.80;93.40
58809;DHT22;44579;51.672;7.834;2022-12-10T01:21:21;1.80;93.30
58809;DHT22;44579;51.672;7.834;2022-12-10T01:23:49;1.80;93.30
58809;DHT22;44579;51.672;7.834;2022-12-10T01:26:19;1.80;93.30
58809;DHT22;44579;51.672;7.834;2022-12-10T01:28:46;1.80;93.30
58809;DHT22;44579;51.672;7.834;2022-12-10T01:31:17;1.80;93.20
58809;DHT22;44579;51.672;7.834;2022-12-10T01:33:45;1.80;93.20
58809;DHT22;44579;51.672;7.834;2022-12-10T01:36:15;1.80;93.10
58809;DHT22;44579;51.672;7.834;2022-12-10T01:38:43;1.80;93.10
58809;DHT22;44579;51.672;7.834;2022-12-10T01:41:16;1.80;93.10
58809;DHT22;44579;51.672;7.834;2022-12-10T01:46:44;1.70;93.10
58809;DHT22;44579;51.672;7.834;2022-12-10T01:49:21;1.80;93.20
58809;DHT22;44579;51.672;7.834;2022-12-10T01:51:51;1.80;93.20
58809;DHT22;44579;51.672;7.834;2022-12-10T01:54:28;1.70;93.20
58809;DHT22;44579;51.672;7.834;2022-12-10T01:57:01;1.70;93.30
58809;DHT22;44579;51.672;7.834;2022-12-10T01:59:30;1.70;93.30
58809;DHT22;44579;51.672;7.834;2022-12-10T02:02:22;1.70;93.30
58809;DHT22;44579;51.672;7.834;2022-12-10T02:07:52;1.80;93.30
58809;DHT22;44579;51.672;7.834;2022-12-10T02:10:41;1.80;93.20
58809;DHT22;44579;51.672;7.834;2022-12-10T02:13:25;1.70;93.20
58809;DHT22;44579;51.672;7.834;2022-12-10T02:16:08;1.70;93.30
58809;DHT22;44579;51.672;7.834;2022-12-10T02:18:50;1.70;93.30
58809;DHT22;44579;51.672;7.834;2022-12-10T02:21:37;1.70;93.30
58809;DHT22;44579;51.672;7.834;2022-12-10T02:24:10;1.80;93.40
58809;DHT22;44579;51.672;7.834;2022-12-10T02:29:31;1.80;93.30
58809;DHT22;44579;51.672;7.834;2022-12-10T02:32:15;1.80;93.30
58809;DHT22;44579;51.672;7.834;2022-12-10T02:34:48;1.90;93.30
58809;DHT22;44579;51.672;7.834;2022-12-10T02:37:22;1.90;93.20
58809;DHT22;44579;51.672;7.834;2022-12-10T02:39:54;1.90;93.20
58809;DHT22;44579;51.672;7.834;2022-12-10T02:42:26;1.90;93.20
58809;DHT22;44579;51.672;7.834;2022-12-10T02:44:57;1.80;93.20
58809;DHT22;44579;51.672;7.834;2022-12-10T02:47:25;1.90;93.20
58809;DHT22;44579;51.672;7.834;2022-12-10T02:49:56;1.90;93.20
58809;DHT22;44579;51.672;7.834;2022-12-10T02:52:25;1.80;93.20
58809;DHT22;44579;51.672;7.834;2022-12-10T02:54:53;1.80;93.20
58809;DHT22;44579;51.672;7.834;2022-12-10T02:57:32;1.80;93.20
58809;DHT22;44579;51.672;7.834;2022-12-10T03:05:58;1.80;93.30
58809;DHT22;44579;51.672;7.834;2022-12-10T03:08:40;1.80;93.30
58809;DHT22;44579;51.672;7.834;2022-12-10T03:11:14;1.80;93.30
58809;DHT22;44579;51.672;7.834;2022-12-10T03:13:48;1.80;93.30
58809;DHT22;44579;51.672;7.834;2022-12-10T03:16:17;1.80;93.30
58809;DHT22;44579;51.672;7.834;2022-12-10T03:18:47;1.80;93.20
58809;DHT22;44579;51.672;7.834;2022-12-10T03:21:16;1.80;93.30
58809;DHT22;44579;51.672;7.834;2022-12-10T03:23:46;1.80;93.30
58809;DHT22;44579;51.672;7.834;2022-12-10T03:26:14;1.80;93.30
58809;DHT22;44579;51.672;7.834;2022-12-10T03:28:47;1.80;93.20
58809;DHT22;44579;51.672;7.834;2022-12-10T03:31:17;1.90;93.20
58809;DHT22;44579;51.672;7.834;2022-12-10T03:33:45;1.90;93.20
58809;DHT22;44579;51.672;7.834;2022-12-10T03:36:14;1.90;93.20
58809;DHT22;44579;51.672;7.834;2022-12-10T03:38:42;1.90;93.10
58809;DHT22;44579;51.672;7.834;2022-12-10T03:41:10;1.90;93.10
58809;DHT22;44579;51.672;7.834;2022-12-10T03:43:50;1.90;93.10
58809;DHT22;44579;51.672;7.834;2022-12-10T03:46:17;1.90;93.00
58809;DHT22;44579;51.672;7.834;2022-12-10T03:48:44;1.90;93.00
58809;DHT22;44579;51.672;7.834;2022-12-10T03:51:11;1.90;93.10
58809;DHT22;44579;51.672;7.834;2022-12-10T03:53:38;1.90;93.10
58809;DHT22;44579;51.672;7.834;2022-12-10T03:56:05;1.90;93.10
58809;DHT22;44579;51.672;7.834;2022-12-10T03:58:32;1.90;93.10
58809;DHT22;44579;51.672;7.834;2022-12-10T04:00:59;1.90;93.10
58809;DHT22;44579;51.672;7.834;2022-12-10T04:03:26;1.90;93.10
58809;DHT22;44579;51.672;7.834;2022-12-10T04:05:53;1.90;93.20
58809;DHT22;44579;51.672;7.834;2022-12-10T04:08:19;1.90;93.20
58809;DHT22;44579;51.672;7.834;2022-12-10T04:10:46;1.90;93.20
58809;DHT22;44579;51.672;7.834;2022-12-10T04:13:13;1.90;93.20
58809;DHT22;44579;51.672;7.834;2022-12-10T04:15:58;1.90;93.20
58809;DHT22;44579;51.672;7.834;2022-12-10T04:18:44;1.90;93.20
58809;DHT22;44579;51.672;7.834;2022-12-10T04:21:11;1.90;93.20
58809;DHT22;44579;51.672;7.834;2022-12-10T04:23:56;1.90;93.30
58809;DHT22;44579;51.672;7.834;2022-12-10T04:26:42;1.90;93.20
58809;DHT22;44579;51.672;7.834;2022-12-10T04:29:23;1.90;93.20
58809;DHT22;44579;51.672;7.834;2022-12-10T04:31:51;1.90;93.20
58809;DHT22;44579;51.672;7.834;2022-12-10T04:34:18;1.90;93.20
58809;DHT22;44579;51.672;7.834;2022-12-10T04:36:45;1.90;93.20
58809;DHT22;44579;51.672;7.834;2022-12-10T04:39:13;1.90;93.20
58809;DHT22;44579;51.672;7.834;2022-12-10T04:41:43;1.90;93.20
58809;DHT22;44579;51.672;7.834;2022-12-10T04:44:10;1.90;93.20
58809;DHT22;44579;51.672;7.834;2022-12-10T04:46:38;1.90;93.20
58809;DHT22;44579;51.672;7.834;2022-12-10T04:49:05;1.90;93.20
58809;DHT22;44579;51.672;7.834;2022-12-10T04:51:32;2.00;93.20
58809;DHT22;44579;51.672;7.834;2022-12-10T04:54:00;1.90;93.20
58809;DHT22;44579;51.672;7.834;2022-12-10T04:56:27;1.90;93.30
58809;DHT22;44579;51.672;7.834;2022-12-10T04:58:58;1.90;93.30
58809;DHT22;44579;51.672;7.834;2022-12-10T05:01:26;1.90;93.30
58809;DHT22;44579;51.672;7.834;2022-12-10T05:03:53;1.90;93.30
58809;DHT22;44579;51.672;7.834;2022-12-10T05:06:20;1.90;93.30
58809;DHT22;44579;51.672;7.834;2022-12-10T05:08:47;1.90;93.40
58809;DHT22;44579;51.672;7.834;2022-12-10T05:11:17;1.90;93.80
58809;DHT22;44579;51.672;7.834;2022-12-10T05:13:45;1.90;93.50
58809;DHT22;44579;51.672;7.834;2022-12-10T05:16:12;1.80;93.50
58809;DHT22;44579;51.672;7.834;2022-12-10T05:18:39;1.80;93.50
58809;DHT22;44579;51.672;7.834;2022-12-10T05:21:07;1.80;93.50
58809;DHT22;44579;51.672;7.834;2022-12-10T05:23:36;1.80;93.60
58809;DHT22;44579;51.672;7.834;2022-12-10T05:26:07;1.80;93.60
58809;DHT22;44579;51.672;7.834;2022-12-10T05:28:36;1.70;93.60
58809;DHT22;44579;51.672;7.834;2022-12-10T05:31:03;1.80;93.70
58809;DHT22;44579;51.672;7.834;2022-12-10T05:33:31;1.80;93.70
58809;DHT22;44579;51.672;7.834;2022-12-10T05:35:58;1.80;93.70
58809;DHT22;44579;51.672;7.834;2022-12-10T05:38:26;1.80;93.70
58809;DHT22;44579;51.672;7.834;2022-12-10T05:40:53;1.80;93.70
58809;DHT22;44579;51.672;7.834;2022-12-10T05:43:24;1.80;93.70
58809;DHT22;44579;51.672;7.834;2022-12-10T05:45:51;1.80;93.70
58809;DHT22;44579;51.672;7.834;2022-12-10T05:48:18;1.80;93.60
58809;DHT22;44579;51.672;7.834;2022-12-10T05:50:45;1.90;93.60
58809;DHT22;44579;51.672;7.834;2022-12-10T05:53:11;1.80;93.60
58809;DHT22;44579;51.672;7.834;2022-12-10T05:55:40;1.80;93.60
58809;DHT22;44579;51.672;7.834;2022-12-10T05:58:07;1.80;93.60
58809;DHT22;44579;51.672;7.834;2022-12-10T06:00:34;1.80;93.60
58809;DHT22;44579;51.672;7.834;2022-12-10T06:03:01;1.80;93.60
58809;DHT22;44579;51.672;7.834;2022-12-10T06:05:28;1.80;93.70
58809;DHT22;44579;51.672;7.834;2022-12-10T06:07:55;1.80;93.70
58809;DHT22;44579;51.672;7.834;2022-12-10T06:10:22;1.80;93.70
58809;DHT22;44579;51.672;7.834;2022-12-10T06:12:49;1.80;93.70
58809;DHT22;44579;51.672;7.834;2022-12-10T06:15:16;1.80;93.70
58809;DHT22;44579;51.672;7.834;2022-12-10T06:17:42;1.80;93.70
58809;DHT22;44579;51.672;7.834;2022-12-10T06:20:10;1.80;93.70
58809;DHT22;44579;51.672;7.834;2022-12-10T06:22:37;1.80;93.80
58809;DHT22;44579;51.672;7.834;2022-12-10T06:25:03;1.70;93.70
58809;DHT22;44579;51.672;7.834;2022-12-10T06:27:32;1.70;93.80
58809;DHT22;44579;51.672;7.834;2022-12-10T06:29:59;1.70;93.80
58809;DHT22;44579;51.672;7.834;2022-12-10T06:32:27;1.70;93.90
58809;DHT22;44579;51.672;7.834;2022-12-10T06:34:54;1.70;93.90
58809;DHT22;44579;51.672;7.834;2022-12-10T06:37:20;1.70;93.90
58809;DHT22;44579;51.672;7.834;2022-12-10T06:39:49;1.70;93.90
58809;DHT22;44579;51.672;7.834;2022-12-10T06:42:16;1.60;93.90
58809;DHT22;44579;51.672;7.834;2022-12-10T06:44:43;1.60;93.80
58809;DHT22;44579;51.672;7.834;2022-12-10T06:47:10;1.60;93.90
58809;DHT22;44579;51.672;7.834;2022-12-10T06:49:37;1.70;93.90
58809;DHT22;44579;51.672;7.834;2022-12-10T06:52:04;1.60;93.90
58809;DHT22;44579;51.672;7.834;2022-12-10T06:54:31;1.70;93.90
58809;DHT22;44579;51.672;7.834;2022-12-10T06:56:58;1.60;93.90
58809;DHT22;44579;51.672;7.834;2022-12-10T06:59:24;1.60;94.20
58809;DHT22;44579;51.672;7.834;2022-12-10T07:01:51;1.60;93.90
58809;DHT22;44579;51.672;7.834;2022-12-10T07:04:18;1.70;93.90
58809;DHT22;44579;51.672;7.834;2022-12-10T07:06:45;1.70;93.90
58809;DHT22;44579;51.672;7.834;2022-12-10T07:09:11;1.70;93.80
58809;DHT22;44579;51.672;7.834;2022-12-10T07:11:38;1.70;93.80
58809;DHT22;44579;51.672;7.834;2022-12-10T07:14:05;1.70;93.90
58809;DHT22;44579;51.672;7.834;2022-12-10T07:16:33;1.70;93.90
58809;DHT22;44579;51.672;7.834;2022-12-10T07:19:00;1.70;93.90
58809;DHT22;44579;51.672;7.834;2022-12-10T07:21:29;1.70;93.90
58809;DHT22;44579;51.672;7.834;2022-12-10T07:23:57;1.70;93.90
58809;DHT22;44579;51.672;7.834;2022-12-10T07:26:27;1.80;93.90
58809;DHT22;44579;51.672;7.834;2022-12-10T07:28:54;1.80;93.90
58809;DHT22;44579;51.672;7.834;2022-12-10T07:31:22;1.80;93.80
58809;DHT22;44579;51.672;7.834;2022-12-10T07:33:53;1.80;93.80
58809;DHT22;44579;51.672;7.834;2022-12-10T07:36:21;1.80;93.80
58809;DHT22;44579;51.672;7.834;2022-12-10T07:38:49;1.80;93.80
58809;DHT22;44579;51.672;7.834;2022-12-10T07:41:17;1.80;93.90
58809;DHT22;44579;51.672;7.834;2022-12-10T07:43:44;1.80;93.90
58809;DHT22;44579;51.672;7.834;2022-12-10T07:46:16;1.80;93.80
58809;DHT22;44579;51.672;7.834;2022-12-10T07:48:44;1.80;93.80
58809;DHT22;44579;51.672;7.834;2022-12-10T07:51:11;1.80;93.90
58809;DHT22;44579;51.672;7.834;2022-12-10T07:53:38;1.80;94.20
58809;DHT22;44579;51.672;7.834;2022-12-10T07:56:05;1.80;93.80
58809;DHT22;44579;51.672;7.834;2022-12-10T07:58:32;1.80;93.80
58809;DHT22;44579;51.672;7.834;2022-12-10T08:01:05;1.80;93.80
58809;DHT22;44579;51.672;7.834;2022-12-10T08:03:32;1.80;93.80
58809;DHT22;44579;51.672;7.834;2022-12-10T08:06:06;1.80;93.80
58809;DHT22;44579;51.672;7.834;2022-12-10T08:08:34;1.80;93.80
58809;DHT22;44579;51.672;7.834;2022-12-10T08:11:01;1.80;93.90
58809;DHT22;44579;51.672;7.834;2022-12-10T08:13:28;1.80;93.90
58809;DHT22;44579;51.672;7.834;2022-12-10T08:16:29;1.80;93.90
58809;DHT22;44579;51.672;7.834;2022-12-10T08:18:55;1.80;93.90
58809;DHT22;44579;51.672;7.834;2022-12-10T08:21:23;1.80;94.00
58809;DHT22;44579;51.672;7.834;2022-12-10T08:23:50;1.80;94.00
58809;DHT22;44579;51.672;7.834;2022-12-10T08:26:18;1.80;94.00
58809;DHT22;44579;51.672;7.834;2022-12-10T08:28:46;1.80;94.40
58809;DHT22;44579;51.672;7.834;2022-12-10T08:31:14;1.80;94.00
58809;DHT22;44579;51.672;7.834;2022-12-10T08:33:42;1.80;94.00
58809;DHT22;44579;51.672;7.834;2022-12-10T08:36:11;1.90;94.00
58809;DHT22;44579;51.672;7.834;2022-12-10T08:38:38;1.90;94.00
58809;DHT22;44579;51.672;7.834;2022-12-10T08:41:09;1.90;94.00
58809;DHT22;44579;51.672;7.834;2022-12-10T08:43:36;1.90;94.00
58809;DHT22;44579;51.672;7.834;2022-12-10T08:46:03;1.90;94.00
58809;DHT22;44579;51.672;7.834;2022-12-10T08:48:30;1.90;94.00
58809;DHT22;44579;51.672;7.834;2022-12-10T08:50:57;1.90;94.00
58809;DHT22;44579;51.672;7.834;2022-12-10T08:53:25;1.90;94.00
58809;DHT22;44579;51.672;7.834;2022-12-10T08:55:52;2.00;94.00
58809;DHT22;44579;51.672;7.834;2022-12-10T08:58:19;2.00;94.00
58809;DHT22;44579;51.672;7.834;2022-12-10T09:00:47;2.00;94.00
58809;DHT22;44579;51.672;7.834;2022-12-10T09:03:14;2.00;94.00
58809;DHT22;44579;51.672;7.834;2022-12-10T09:05:41;2.00;94.00
58809;DHT22;44579;51.672;7.834;2022-12-10T09:08:08;2.00;94.10
58809;DHT22;44579;51.672;7.834;2022-12-10T09:10:36;2.00;94.00
58809;DHT22;44579;51.672;7.834;2022-12-10T09:13:03;2.00;94.00
58809;DHT22;44579;51.672;7.834;2022-12-10T09:15:30;2.10;94.10
58809;DHT22;44579;51.672;7.834;2022-12-10T09:17:57;2.10;94.10
58809;DHT22;44579;51.672;7.834;2022-12-10T09:20:24;2.10;94.10
58809;DHT22;44579;51.672;7.834;2022-12-10T09:22:51;2.10;94.10
58809;DHT22;44579;51.672;7.834;2022-12-10T09:25:18;2.10;94.20
58809;DHT22;44579;51.672;7.834;2022-12-10T09:27:48;2.10;94.20
58809;DHT22;44579;51.672;7.834;2022-12-10T09:30:15;2.10;94.20
58809;DHT22;44579;51.672;7.834;2022-12-10T09:32:43;2.10;94.30
58809;DHT22;44579;51.672;7.834;2022-12-10T09:35:10;2.10;94.30
58809;DHT22;44579;51.672;7.834;2022-12-10T09:37:37;2.10;94.40
58809;DHT22;44579;51.672;7.834;2022-12-10T09:40:04;2.10;94.40
58809;DHT22;44579;51.672;7.834;2022-12-10T09:45:14;2.10;94.30
58809;DHT22;44579;51.672;7.834;2022-12-10T09:53:26;2.20;94.40
58809;DHT22;44579;51.672;7.834;2022-12-10T09:55:54;2.10;94.40
58809;DHT22;44579;51.672;7.834;2022-12-10T09:58:22;2.10;94.50
58809;DHT22;44579;51.672;7.834;2022-12-10T10:00:57;2.10;94.50
58809;DHT22;44579;51.672;7.834;2022-12-10T10:03:24;2.20;94.50
58809;DHT22;44579;51.672;7.834;2022-12-10T10:05:51;2.20;94.50
58809;DHT22;44579;51.672;7.834;2022-12-10T10:08:31;2.20;94.60
58809;DHT22;44579;51.672;7.834;2022-12-10T10:11:03;2.20;94.60
58809;DHT22;44579;51.672;7.834;2022-12-10T10:13:38;2.20;94.70
58809;DHT22;44579;51.672;7.834;2022-12-10T10:16:17;2.20;94.60
58809;DHT22;44579;51.672;7.834;2022-12-10T10:19:02;2.20;94.60
58809;DHT22;44579;51.672;7.834;2022-12-10T10:21:38;2.20;94.60
58809;DHT22;44579;51.672;7.834;2022-12-10T10:24:06;2.30;94.60
58809;DHT22;44579;51.672;7.834;2022-12-10T10:26:38;2.30;94.60
58809;DHT22;44579;51.672;7.834;2022-12-10T10:29:05;2.20;94.60
58809;DHT22;44579;51.672;7.834;2022-12-10T10:31:34;2.20;94.70
58809;DHT22;44579;51.672;7.834;2022-12-10T10:34:04;2.20;94.70
58809;DHT22;44579;51.672;7.834;2022-12-10T10:36:33;2.20;94.80
58809;DHT22;44579;51.672;7.834;2022-12-10T10:39:07;2.20;94.90
58809;DHT22;44579;51.672;7.834;2022-12-10T10:41:36;2.30;94.90
58809;DHT22;44579;51.672;7.834;2022-12-10T10:44:12;2.30;94.80
58809;DHT22;44579;51.672;7.834;2022-12-10T10:46:42;2.40;94.80
58809;DHT22;44579;51.672;7.834;2022-12-10T10:49:12;2.40;94.80
58809;DHT22;44579;51.672;7.834;2022-12-10T10:51:43;2.40;94.80
58809;DHT22;44579;51.672;7.834;2022-12-10T10:54:11;2.40;94.80
58809;DHT22;44579;51.672;7.834;2022-12-10T10:56:39;2.40;94.80
58809;DHT22;44579;51.672;7.834;2022-12-10T10:59:20;2.40;94.80
58809;DHT22;44579;51.672;7.834;2022-12-10T11:01:53;2.40;94.90
58809;DHT22;44579;51.672;7.834;2022-12-10T11:04:23;2.40;94.80
58809;DHT22;44579;51.672;7.834;2022-12-10T11:06:53;2.40;94.80
58809;DHT22;44579;51.672;7.834;2022-12-10T11:09:23;2.40;94.80
58809;DHT22;44579;51.672;7.834;2022-12-10T11:11:58;2.40;94.90
58809;DHT22;44579;51.672;7.834;2022-12-10T11:14:39;2.40;94.90
58809;DHT22;44579;51.672;7.834;2022-12-10T11:19:42;2.50;94.90
58809;DHT22;44579;51.672;7.834;2022-12-10T11:22:21;2.40;94.90
58809;DHT22;44579;51.672;7.834;2022-12-10T11:24:48;2.40;94.90
58809;DHT22;44579;51.672;7.834;2022-12-10T11:30:05;2.50;94.90
58809;DHT22;44579;51.672;7.834;2022-12-10T11:35:14;2.50;94.90
58809;DHT22;44579;51.672;7.834;2022-12-10T11:38:21;2.50;94.90
58809;DHT22;44579;51.672;7.834;2022-12-10T11:43:30;2.60;95.00
58809;DHT22;44579;51.672;7.834;2022-12-10T11:57:06;2.60;94.90
58809;DHT22;44579;51.672;7.834;2022-12-10T12:02:46;2.60;94.90
58809;DHT22;44579;51.672;7.834;2022-12-10T12:13:08;2.70;94.90
58809;DHT22;44579;51.672;7.834;2022-12-10T12:18:20;2.70;94.80
58809;DHT22;44579;51.672;7.834;2022-12-10T12:20:58;2.70;94.90
58809;DHT22;44579;51.672;7.834;2022-12-10T12:26:12;2.80;94.90
58809;DHT22;44579;51.672;7.834;2022-12-10T12:28:47;2.80;94.90
58809;DHT22;44579;51.672;7.834;2022-12-10T12:31:26;2.80;95.00
58809;DHT22;44579;51.672;7.834;2022-12-10T12:34:01;2.80;95.00
58809;DHT22;44579;51.672;7.834;2022-12-10T12:36:30;2.80;95.00
58809;DHT22;44579;51.672;7.834;2022-12-10T12:39:05;2.90;95.00
58809;DHT22;44579;51.672;7.834;2022-12-10T12:41:37;2.80;95.00
58809;DHT22;44579;51.672;7.834;2022-12-10T12:44:09;2.80;95.00
58809;DHT22;44579;51.672;7.834;2022-12-10T12:46:44;2.90;95.10
58809;DHT22;44579;51.672;7.834;2022-12-10T12:49:28;2.90;95.10
58809;DHT22;44579;51.672;7.834;2022-12-10T12:54:26;2.90;95.00
58809;DHT22;44579;51.672;7.834;2022-12-10T13:02:12;2.80;95.00
58809;DHT22;44579;51.672;7.834;2022-12-10T13:04:41;2.80;95.10
58809;DHT22;44579;51.672;7.834;2022-12-10T13:22:54;2.70;95.10
58809;DHT22;44579;51.672;7.834;2022-12-10T13:25:37;2.70;95.10
58809;DHT22;44579;51.672;7.834;2022-12-10T13:31:07;2.70;95.10
58809;DHT22;44579;51.672;7.834;2022-12-10T13:34:05;2.60;95.00
58809;DHT22;44579;51.672;7.834;2022-12-10T13:41:32;2.70;95.00
58809;DHT22;44579;51.672;7.834;2022-12-10T13:44:35;2.70;94.90
58809;DHT22;44579;51.672;7.834;2022-12-10T13:47:05;2.70;94.90
58809;DHT22;44579;51.672;7.834;2022-12-10T13:49:52;2.70;94.90
58809;DHT22;44579;51.672;7.834;2022-12-10T13:52:23;2.60;94.90
58809;DHT22;44579;51.672;7.834;2022-12-10T13:55:02;2.60;94.90
58809;DHT22;44579;51.672;7.834;2022-12-10T14:00:18;2.60;94.90
58809;DHT22;44579;51.672;7.834;2022-12-10T14:07:54;2.70;94.70
58809;DHT22;44579;51.672;7.834;2022-12-10T14:10:24;2.70;94.70
58809;DHT22;44579;51.672;7.834;2022-12-10T14:12:52;2.70;94.80
58809;DHT22;44579;51.672;7.834;2022-12-10T14:15:22;2.70;94.70
58809;DHT22;44579;51.672;7.834;2022-12-10T14:17:52;2.70;94.70
58809;DHT22;44579;51.672;7.834;2022-12-10T14:20:21;2.70;94.70
58809;DHT22;44579;51.672;7.834;2022-12-10T14:22:53;2.70;94.50
58809;DHT22;44579;51.672;7.834;2022-12-10T14:25:44;2.70;94.50
58809;DHT22;44579;51.672;7.834;2022-12-10T14:28:15;2.70;94.90
58809;DHT22;44579;51.672;7.834;2022-12-10T14:30:49;2.60;94.50
58809;DHT22;44579;51.672;7.834;2022-12-10T14:33:17;2.60;94.50
58809;DHT22;44579;51.672;7.834;2022-12-10T14:35:48;2.60;94.50
58809;DHT22;44579;51.672;7.834;2022-12-10T14:38:17;2.60;94.40
58809;DHT22;44579;51.672;7.834;2022-12-10T14:40:45;2.60;94.40
58809;DHT22;44579;51.672;7.834;2022-12-10T14:43:13;2.50;94.40
58809;DHT22;44579;51.672;7.834;2022-12-10T14:45:45;2.50;94.40
58809;DHT22;44579;51.672;7.834;2022-12-10T14:48:14;2.50;94.40
58809;DHT22;44579;51.672;7.834;2022-12-10T14:50:43;2.40;94.30
58809;DHT22;44579;51.672;7.834;2022-12-10T14:53:18;2.40;94.30
58809;DHT22;44579;51.672;7.834;2022-12-10T14:55:55;2.30;94.30
58809;DHT22;44579;51.672;7.834;2022-12-10T14:58:31;2.20;94.40
58809;DHT22;44579;51.672;7.834;2022-12-10T15:01:09;2.20;94.50
58809;DHT22;44579;51.672;7.834;2022-12-10T15:03:39;2.20;94.50
58809;DHT22;44579;51.672;7.834;2022-12-10T15:06:12;2.20;94.50
58809;DHT22;44579;51.672;7.834;2022-12-10T15:08:42;2.20;94.50
58809;DHT22;44579;51.672;7.834;2022-12-10T15:11:14;2.20;94.50
58809;DHT22;44579;51.672;7.834;2022-12-10T15:13:43;2.20;94.40
58809;DHT22;44579;51.672;7.834;2022-12-10T15:16:18;2.20;94.40
58809;DHT22;44579;51.672;7.834;2022-12-10T15:18:46;2.20;94.40
58809;DHT22;44579;51.672;7.834;2022-12-10T15:21:18;2.20;94.40
58809;DHT22;44579;51.672;7.834;2022-12-10T15:23:46;2.20;94.40
58809;DHT22;44579;51.672;7.834;2022-12-10T15:26:15;2.20;94.40
58809;DHT22;44579;51.672;7.834;2022-12-10T15:28:43;2.10;94.30
58809;DHT22;44579;51.672;7.834;2022-12-10T15:33:42;2.10;94.40
58809;DHT22;44579;51.672;7.834;2022-12-10T15:38:48;2.20;94.40
58809;DHT22;44579;51.672;7.834;2022-12-10T15:41:22;2.20;94.40
58809;DHT22;44579;51.672;7.834;2022-12-10T15:44:25;2.10;94.30
58809;DHT22;44579;51.672;7.834;2022-12-10T15:46:49;2.10;94.30
58809;DHT22;44579;51.672;7.834;2022-12-10T15:49:16;2.10;94.20
58809;DHT22;44579;51.672;7.834;2022-12-10T15:51:43;2.00;94.20
58809;DHT22;44579;51.672;7.834;2022-12-10T15:56:46;1.90;94.20
58809;DHT22;44579;51.672;7.834;2022-12-10T15:59:13;1.90;94.30
58809;DHT22;44579;51.672;7.834;2022-12-10T16:01:40;1.90;94.30
58809;DHT22;44579;51.672;7.834;2022-12-10T16:04:07;1.90;94.20
58809;DHT22;44579;51.672;7.834;2022-12-10T16:06:36;1.90;94.30
58809;DHT22;44579;51.672;7.834;2022-12-10T16:09:03;1.80;94.30
58809;DHT22;44579;51.672;7.834;2022-12-10T16:11:30;1.80;94.30
58809;DHT22;44579;51.672;7.834;2022-12-10T16:13:57;1.90;94.30
58809;DHT22;44579;51.672;7.834;2022-12-10T16:16:24;1.80;94.30
58809;DHT22;44579;51.672;7.834;2022-12-10T16:18:51;1.80;94.30
58809;DHT22;44579;51.672;7.834;2022-12-10T16:21:18;1.80;94.30
58809;DHT22;44579;51.672;7.834;2022-12-10T16:23:45;1.90;94.30
58809;DHT22;44579;51.672;7.834;2022-12-10T16:26:16;1.90;94.30
58809;DHT22;44579;51.672;7.834;2022-12-10T16:28:43;1.90;94.30
58809;DHT22;44579;51.672;7.834;2022-12-10T16:31:11;1.90;94.30
58809;DHT22;44579;51.672;7.834;2022-12-10T16:33:38;1.90;94.20
58809;DHT22;44579;51.672;7.834;2022-12-10T16:36:05;1.90;94.20
58809;DHT22;44579;51.672;7.834;2022-12-10T16:38:32;1.90;94.20
58809;DHT22;44579;51.672;7.834;2022-12-10T16:40:59;1.90;94.20
58809;DHT22;44579;51.672;7.834;2022-12-10T16:43:26;1.90;94.20
58809;DHT22;44579;51.672;7.834;2022-12-10T16:45:54;1.90;94.20
58809;DHT22;44579;51.672;7.834;2022-12-10T16:48:21;1.90;94.20
58809;DHT22;44579;51.672;7.834;2022-12-10T16:50:49;1.90;94.20
58809;DHT22;44579;51.672;7.834;2022-12-10T16:53:23;1.90;94.20
58809;DHT22;44579;51.672;7.834;2022-12-10T16:55:51;1.90;94.20
58809;DHT22;44579;51.672;7.834;2022-12-10T16:58:18;1.90;94.20
58809;DHT22;44579;51.672;7.834;2022-12-10T17:00:46;1.90;94.20
58809;DHT22;44579;51.672;7.834;2022-12-10T17:03:18;1.90;94.20
58809;DHT22;44579;51.672;7.834;2022-12-10T17:05:50;1.90;94.20
58809;DHT22;44579;51.672;7.834;2022-12-10T17:08:17;1.90;94.20
58809;DHT22;44579;51.672;7.834;2022-12-10T17:10:45;1.90;94.30
58809;DHT22;44579;51.672;7.834;2022-12-10T17:13:31;1.80;94.20
58809;DHT22;44579;51.672;7.834;2022-12-10T17:15:58;1.90;94.30
58809;DHT22;44579;51.672;7.834;2022-12-10T17:18:24;1.80;94.30
58809;DHT22;44579;51.672;7.834;2022-12-10T17:20:51;1.90;94.30
58809;DHT22;44579;51.672;7.834;2022-12-10T17:23:19;1.80;94.30
58809;DHT22;44579;51.672;7.834;2022-12-10T17:25:46;1.90;94.30
58809;DHT22;44579;51.672;7.834;2022-12-10T17:28:14;1.90;94.30
58809;DHT22;44579;51.672;7.834;2022-12-10T17:30:42;1.90;94.30
58809;DHT22;44579;51.672;7.834;2022-12-10T17:33:12;1.90;94.30
58809;DHT22;44579;51.672;7.834;2022-12-10T17:35:43;1.90;94.30
58809;DHT22;44579;51.672;7.834;2022-12-10T17:38:14;1.90;94.30
58809;DHT22;44579;51.672;7.834;2022-12-10T17:40:41;1.90;94.30
58809;DHT22;44579;51.672;7.834;2022-12-10T17:43:08;1.90;94.20
58809;DHT22;44579;51.672;7.834;2022-12-10T17:45:35;1.90;94.20
58809;DHT22;44579;51.672;7.834;2022-12-10T17:48:02;1.90;94.20
58809;DHT22;44579;51.672;7.834;2022-12-10T17:50:30;1.90;94.20
58809;DHT22;44579;51.672;7.834;2022-12-10T17:52:58;1.90;94.20